createdAt,value
2023-03-26T00:02:34.609Z,2.77
2023-03-26T00:05:20.458Z,3.13
2023-03-26T00:08:06.905Z,2.83
2023-03-26T00:10:52.156Z,2.87
2023-03-26T00:13:38.281Z,2.20
2023-03-26T00:16:26.955Z,3.20
2023-03-26T00:19:12.106Z,2.70
2023-03-26T00:21:57.266Z,1.70
2023-03-26T00:24:42.744Z,3.07
2023-03-26T00:27:28.468Z,2.67
2023-03-26T00:30:13.994Z,2.87
2023-03-26T00:32:59.344Z,3.07
2023-03-26T00:35:44.857Z,3.63
2023-03-26T00:38:30.122Z,3.00
2023-03-26T00:41:17.900Z,3.20
2023-03-26T00:44:03.692Z,4.10
2023-03-26T00:46:49.054Z,4.67
2023-03-26T00:49:34.301Z,4.97
2023-03-26T00:52:20.090Z,3.63
2023-03-26T00:55:05.944Z,3.00
2023-03-26T00:57:51.377Z,4.93
2023-03-26T01:00:42.224Z,4.67
2023-03-26T01:03:29.821Z,5.03
2023-03-26T01:06:34.431Z,2.67
2023-03-26T01:09:21.878Z,5.27
2023-03-26T01:12:11.539Z,2.67
2023-03-26T01:14:59.251Z,3.03
2023-03-26T01:17:44.873Z,3.03
2023-03-26T01:20:32.345Z,2.80
2023-03-26T01:23:24.522Z,4.93
2023-03-26T01:26:45.379Z,2.87
2023-03-26T01:29:38.869Z,3.20
2023-03-26T01:32:45.450Z,2.50
2023-03-26T01:35:58.378Z,4.13
2023-03-26T01:38:52.100Z,1.67
2023-03-26T01:41:48.257Z,1.43
2023-03-26T01:45:11.773Z,2.33
2023-03-26T01:47:58.284Z,2.37
2023-03-26T01:50:44.075Z,2.63
2023-03-26T01:53:29.892Z,2.70
2023-03-26T01:56:26.120Z,0.80
2023-03-26T01:59:17.293Z,1.13
2023-03-26T02:02:14.237Z,1.20
2023-03-26T02:05:17.369Z,0.77
2023-03-26T02:08:02.477Z,0.97
2023-03-26T02:10:56.424Z,0.73
2023-03-26T02:13:45.030Z,0.93
2023-03-26T02:16:30.192Z,1.87
2023-03-26T02:19:15.699Z,0.83
2023-03-26T02:22:01.667Z,0.80
2023-03-26T02:24:49.808Z,1.37
2023-03-26T02:27:37.012Z,0.80
2023-03-26T02:30:24.699Z,0.70
2023-03-26T02:33:11.636Z,1.30
2023-03-26T02:36:00.126Z,2.63
2023-03-26T02:38:45.580Z,0.70
2023-03-26T02:41:32.571Z,1.00
2023-03-26T02:44:21.840Z,1.30
2023-03-26T02:47:16.762Z,0.30
2023-03-26T02:50:22.453Z,0.67
2023-03-26T02:53:27.760Z,0.40
2023-03-26T02:56:17.417Z,0.60
2023-03-26T02:59:17.166Z,1.10
2023-03-26T03:02:06.013Z,1.43
2023-03-26T03:04:52.286Z,1.27
2023-03-26T03:07:37.422Z,0.60
2023-03-26T03:10:22.617Z,1.50
2023-03-26T03:13:24.949Z,1.70
2023-03-26T03:16:11.086Z,1.80
2023-03-26T03:18:58.124Z,3.33
2023-03-26T03:21:52.232Z,1.30
2023-03-26T03:24:37.474Z,1.80
2023-03-26T03:27:24.080Z,1.60
2023-03-26T03:30:16.629Z,2.30
2023-03-26T03:33:05.252Z,1.00
2023-03-26T03:35:51.063Z,3.03
2023-03-26T03:38:38.676Z,1.90
2023-03-26T03:41:24.741Z,1.80
2023-03-26T03:44:09.798Z,3.37
2023-03-26T03:46:55.359Z,3.33
2023-03-26T03:49:40.644Z,8.30
2023-03-26T03:52:27.202Z,5.87
2023-03-26T03:55:13.098Z,1.30
2023-03-26T03:58:06.079Z,3.43
2023-03-26T04:00:53.025Z,3.43
2023-03-26T04:04:00.900Z,2.20
2023-03-26T04:06:59.889Z,3.90
2023-03-26T04:09:52.447Z,5.07
2023-03-26T04:12:39.940Z,7.37
2023-03-26T04:15:26.886Z,4.40
2023-03-26T04:18:12.245Z,6.40
2023-03-26T04:21:01.265Z,7.43
2023-03-26T04:23:47.572Z,8.93
2023-03-26T04:26:51.607Z,8.93
2023-03-26T04:29:46.507Z,6.17
2023-03-26T04:32:38.600Z,7.93
2023-03-26T04:35:24.210Z,8.47
2023-03-26T04:38:15.044Z,7.07
2023-03-26T04:41:04.104Z,7.63
2023-03-26T04:44:08.911Z,8.47
2023-03-26T04:47:12.188Z,11.03
2023-03-26T04:50:08.564Z,8.77
2023-03-26T04:52:56.666Z,9.97
2023-03-26T04:56:41.856Z,7.37
2023-03-26T04:59:30.543Z,7.07
2023-03-26T05:02:17.199Z,7.40
2023-03-26T05:05:11.987Z,7.40
2023-03-26T05:07:57.787Z,7.33
2023-03-26T05:10:43.395Z,6.00
2023-03-26T05:13:33.124Z,7.47
2023-03-26T05:16:24.611Z,5.63
2023-03-26T05:19:15.912Z,8.10
2023-03-26T05:22:01.027Z,8.33
2023-03-26T05:24:46.523Z,6.73
2023-03-26T05:27:33.261Z,6.57
2023-03-26T05:30:21.002Z,6.47
2023-03-26T05:33:11.160Z,4.93
2023-03-26T05:36:12.060Z,8.57
2023-03-26T05:38:59.353Z,7.27
2023-03-26T05:42:17.459Z,6.63
2023-03-26T05:45:21.791Z,6.93
2023-03-26T05:48:07.060Z,12.63
2023-03-26T05:50:55.501Z,11.97
2023-03-26T05:53:41.604Z,8.13
2023-03-26T05:56:45.479Z,8.70
2023-03-26T05:59:50.527Z,8.20
2023-03-26T06:02:56.799Z,7.30
2023-03-26T06:06:01.559Z,10.20
2023-03-26T06:09:01.831Z,8.30
2023-03-26T06:11:48.304Z,8.27
2023-03-26T06:14:33.596Z,7.77
2023-03-26T06:17:38.860Z,9.63
2023-03-26T06:20:51.225Z,9.23
2023-03-26T06:23:56.766Z,9.13
2023-03-26T06:27:01.639Z,6.70
2023-03-26T06:30:06.508Z,7.47
2023-03-26T06:33:11.751Z,11.13
2023-03-26T06:36:03.239Z,8.17
2023-03-26T06:38:49.043Z,10.23
2023-03-26T06:41:35.497Z,5.30
2023-03-26T06:44:33.482Z,8.27
2023-03-26T06:47:39.112Z,5.97
2023-03-26T06:50:43.384Z,6.40
2023-03-26T06:53:47.532Z,7.80
2023-03-26T06:56:56.525Z,9.20
2023-03-26T07:00:00.940Z,8.00
2023-03-26T07:03:05.523Z,8.20
2023-03-26T07:06:10.187Z,9.97
2023-03-26T07:09:16.102Z,8.33
2023-03-26T07:12:20.253Z,8.93
2023-03-26T07:15:34.365Z,10.20
2023-03-26T07:18:36.370Z,6.73
2023-03-26T07:21:23.294Z,5.57
2023-03-26T07:24:12.665Z,6.60
2023-03-26T07:27:37.255Z,10.00
2023-03-26T07:30:55.677Z,8.40
2023-03-26T07:34:02.411Z,7.97
2023-03-26T07:37:12.227Z,9.17
2023-03-26T07:41:02.429Z,11.33
2023-03-26T07:44:07.836Z,9.23
2023-03-26T07:47:17.513Z,8.37
2023-03-26T07:50:23.840Z,9.10
2023-03-26T07:53:24.085Z,8.37
2023-03-26T07:56:21.440Z,9.38
2023-03-26T07:59:49.248Z,7.35
2023-03-26T08:03:25.250Z,9.37
2023-03-26T08:06:34.658Z,7.47
2023-03-26T08:09:58.792Z,8.67
2023-03-26T08:13:26.582Z,7.73
2023-03-26T08:16:31.815Z,7.10
2023-03-26T08:19:32.500Z,8.57
2023-03-26T08:22:31.212Z,7.82
2023-03-26T08:25:28.233Z,8.53
2023-03-26T08:28:44.440Z,6.72
2023-03-26T08:31:35.992Z,10.18
2023-03-26T08:34:21.491Z,10.47
2023-03-26T08:37:06.929Z,8.80
2023-03-26T08:39:52.241Z,8.10
2023-03-26T08:43:03.674Z,10.23
2023-03-26T08:46:06.241Z,7.30
2023-03-26T08:49:42.559Z,10.13
2023-03-26T08:52:46.366Z,7.73
2023-03-26T08:55:49.331Z,10.83
2023-03-26T08:58:40.230Z,7.50
2023-03-26T09:01:44.309Z,8.38
2023-03-26T09:05:08.101Z,8.80
2023-03-26T09:07:55.898Z,7.70
2023-03-26T09:10:53.376Z,8.55
2023-03-26T09:13:38.424Z,5.25
2023-03-26T09:17:05.456Z,6.67
2023-03-26T09:20:26.493Z,5.83
2023-03-26T09:23:28.920Z,10.20
2023-03-26T09:26:36.754Z,7.50
2023-03-26T09:29:49.980Z,8.52
2023-03-26T09:32:56.571Z,5.73
2023-03-26T09:35:54.003Z,7.03
2023-03-26T09:38:39.213Z,9.77
2023-03-26T09:41:39.132Z,7.57
2023-03-26T09:44:36.402Z,7.93
2023-03-26T09:47:27.858Z,5.60
2023-03-26T09:50:21.662Z,7.35
2023-03-26T09:53:44.238Z,6.05
2023-03-26T09:57:03.769Z,6.90
2023-03-26T10:00:15.716Z,6.43
2023-03-26T10:03:16.489Z,6.85
2023-03-26T10:06:40.012Z,8.77
2023-03-26T10:09:43.191Z,6.57
2023-03-26T10:12:42.707Z,6.90
2023-03-26T10:15:34.458Z,8.75
2023-03-26T10:18:35.140Z,10.60
2023-03-26T10:21:55.787Z,7.00
2023-03-26T10:24:48.073Z,8.27
2023-03-26T10:27:33.492Z,6.68
2023-03-26T10:30:53.066Z,9.82
2023-03-26T10:34:03.918Z,10.40
2023-03-26T10:37:13.952Z,7.45
2023-03-26T10:40:31.744Z,6.00
2023-03-26T10:43:38.427Z,5.05
2023-03-26T10:46:54.757Z,4.13
2023-03-26T10:50:22.787Z,7.90
2023-03-26T10:53:15.441Z,7.33
2023-03-26T10:56:17.318Z,6.82
2023-03-26T10:59:27.031Z,5.70
2023-03-26T11:02:29.683Z,5.97
2023-03-26T11:05:46.281Z,8.37
2023-03-26T11:08:47.408Z,6.73
2023-03-26T11:12:26.330Z,5.67
2023-03-26T11:15:16.386Z,4.43
2023-03-26T11:18:17.409Z,6.57
2023-03-26T11:21:44.521Z,3.75
2023-03-26T11:24:49.048Z,5.45
2023-03-26T11:28:04.051Z,4.23
2023-03-26T11:31:04.152Z,2.27
2023-03-26T11:33:54.819Z,4.40
2023-03-26T11:36:46.074Z,3.43
2023-03-26T11:39:41.744Z,5.53
2023-03-26T11:42:27.694Z,1.83
2023-03-26T11:45:23.325Z,1.92
2023-03-26T11:48:15.816Z,2.50
2023-03-26T11:51:08.320Z,2.80
2023-03-26T11:53:53.819Z,3.60
2023-03-26T11:57:05.434Z,4.87
2023-03-26T12:00:03.969Z,4.57
2023-03-26T12:02:59.308Z,2.97
2023-03-26T12:05:52.588Z,4.53
2023-03-26T12:08:41.424Z,3.67
2023-03-26T12:11:35.144Z,3.07
2023-03-26T12:14:26.181Z,2.87
2023-03-26T12:17:31.460Z,3.58
2023-03-26T12:20:26.877Z,4.57
2023-03-26T12:23:34.512Z,4.47
2023-03-26T12:26:28.598Z,0.80
2023-03-26T12:29:16.904Z,2.13
2023-03-26T12:32:14.245Z,2.13
2023-03-26T12:35:06.607Z,1.67
2023-03-26T12:37:53.158Z,1.00
2023-03-26T12:40:38.738Z,0.90
2023-03-26T12:44:48.305Z,1.20
2023-03-26T12:47:58.041Z,2.07
2023-03-26T12:49:52.803Z,1.67
2023-03-26T12:52:44.135Z,1.30
2023-03-26T12:55:48.835Z,1.60
2023-03-26T12:58:56.116Z,1.60
2023-03-26T13:02:05.180Z,0.90
2023-03-26T13:05:06.027Z,2.23
2023-03-26T13:08:18.055Z,0.70
2023-03-26T13:11:16.862Z,2.20
2023-03-26T13:14:31.497Z,0.57
2023-03-26T13:17:31.897Z,1.43
2023-03-26T13:20:30.659Z,1.27
2023-03-26T13:23:37.573Z,1.23
2023-03-26T13:26:48.770Z,0.63
2023-03-26T13:30:01.726Z,0.67
2023-03-26T13:32:52.753Z,1.00
2023-03-26T13:36:19.343Z,0.60
2023-03-26T13:39:20.053Z,0.60
2023-03-26T13:42:07.761Z,0.40
2023-03-26T13:45:36.445Z,0.43
2023-03-26T13:48:30.018Z,0.50
2023-03-26T13:51:21.987Z,0.53
2023-03-26T13:54:31.427Z,0.73
2023-03-26T13:57:34.686Z,0.50
2023-03-26T14:00:25.611Z,0.50
2023-03-26T14:03:20.669Z,0.50
2023-03-26T14:06:18.311Z,0.60
2023-03-26T14:09:27.709Z,1.10
2023-03-26T14:12:22.116Z,0.50
2023-03-26T14:15:16.450Z,0.90
2023-03-26T14:18:20.770Z,0.77
2023-03-26T14:21:33.618Z,1.17
2023-03-26T14:24:47.030Z,0.63
2023-03-26T14:27:51.524Z,1.10
2023-03-26T14:30:39.786Z,1.00
2023-03-26T14:33:43.770Z,1.20
2023-03-26T14:36:52.935Z,1.07
2023-03-26T14:40:12.554Z,1.50
2023-03-26T14:43:04.035Z,0.70
2023-03-26T14:46:10.957Z,1.33
2023-03-26T14:49:18.161Z,2.07
2023-03-26T14:52:18.828Z,1.33
2023-03-26T14:55:14.480Z,0.83
2023-03-26T14:58:17.093Z,1.30
2023-03-26T15:01:21.248Z,1.63
2023-03-26T15:04:36.100Z,0.70
2023-03-26T15:07:39.877Z,0.67
2023-03-26T15:11:22.515Z,1.93
2023-03-26T15:14:53.124Z,1.07
2023-03-26T15:17:53.584Z,0.70
2023-03-26T15:20:57.335Z,0.70
2023-03-26T15:24:20.240Z,1.13
2023-03-26T15:27:23.579Z,0.60
2023-03-26T15:30:22.015Z,1.17
2023-03-26T15:33:20.957Z,0.83
2023-03-26T15:36:25.326Z,0.77
2023-03-26T15:39:22.951Z,0.77
2023-03-26T15:42:37.963Z,1.10
2023-03-26T15:45:29.698Z,1.83
2023-03-26T15:48:23.131Z,0.93
2023-03-26T15:51:46.872Z,1.33
2023-03-26T15:55:06.315Z,0.70
2023-03-26T15:58:30.913Z,1.60
2023-03-26T16:01:32.638Z,1.57
2023-03-26T16:04:50.288Z,0.60
2023-03-26T16:08:04.140Z,1.00
2023-03-26T16:10:49.362Z,1.13
2023-03-26T16:13:40.514Z,1.53
2023-03-26T16:16:48.636Z,0.70
2023-03-26T16:19:46.390Z,0.70
2023-03-26T16:22:52.903Z,0.70
2023-03-26T16:26:16.670Z,0.90
2023-03-26T16:29:04.996Z,0.97
2023-03-26T16:32:07.558Z,1.40
2023-03-26T16:34:52.721Z,2.50
2023-03-26T16:37:43.840Z,1.67
2023-03-26T16:40:33.986Z,1.90
2023-03-26T16:43:43.949Z,1.37
2023-03-26T16:46:52.867Z,1.73
2023-03-26T16:50:08.831Z,3.73
2023-03-26T16:53:00.088Z,2.47
2023-03-26T16:56:12.943Z,2.47
2023-03-26T16:59:01.885Z,2.07
2023-03-26T17:01:57.102Z,1.30
2023-03-26T17:04:48.507Z,1.90
2023-03-26T17:07:41.476Z,1.97
2023-03-26T17:10:53.034Z,2.73
2023-03-26T17:14:03.826Z,2.80
2023-03-26T17:17:18.049Z,2.23
2023-03-26T17:20:19.078Z,1.80
2023-03-26T17:23:35.764Z,4.10
2023-03-26T17:26:58.078Z,1.63
2023-03-26T17:30:20.464Z,2.40
2023-03-26T17:33:05.817Z,1.47
2023-03-26T17:36:11.735Z,1.23
2023-03-26T17:39:01.582Z,2.37
2023-03-26T17:41:56.143Z,1.40
2023-03-26T17:45:06.202Z,0.83
2023-03-26T17:48:01.700Z,1.13
2023-03-26T17:51:14.042Z,2.13
2023-03-26T17:54:00.058Z,1.97
2023-03-26T17:56:46.910Z,1.10
2023-03-26T17:59:32.780Z,3.27
2023-03-26T18:02:27.818Z,1.80
2023-03-26T18:05:15.894Z,2.03
2023-03-26T18:08:13.306Z,1.07
2023-03-26T18:11:11.011Z,2.30
2023-03-26T18:13:58.987Z,1.93
2023-03-26T18:16:51.445Z,1.53
2023-03-26T18:20:06.554Z,1.60
2023-03-26T18:22:52.805Z,1.73
2023-03-26T18:25:38.639Z,2.40
2023-03-26T18:28:34.408Z,1.47
2023-03-26T18:31:26.504Z,1.87
2023-03-26T18:34:18.868Z,2.90
2023-03-26T18:37:13.226Z,2.23
2023-03-26T18:39:58.537Z,2.03
2023-03-26T18:42:56.298Z,2.07
2023-03-26T18:45:42.701Z,2.13
2023-03-26T18:48:29.193Z,3.57
2023-03-26T18:51:14.658Z,1.20
2023-03-26T18:54:03.330Z,1.17
2023-03-26T18:56:49.072Z,1.03
2023-03-26T18:59:36.072Z,1.53
2023-03-26T19:02:26.341Z,2.80
2023-03-26T19:05:16.952Z,2.63
2023-03-26T19:08:06.090Z,1.70
2023-03-26T19:10:53.137Z,1.67
2023-03-26T19:13:40.089Z,1.20
2023-03-26T19:16:29.002Z,1.30
2023-03-26T19:19:21.430Z,1.13
2023-03-26T19:22:11.282Z,1.40
2023-03-26T19:25:01.256Z,1.57
2023-03-26T19:27:46.795Z,1.80
2023-03-26T19:30:39.300Z,2.07
2023-03-26T19:33:33.827Z,2.50
2023-03-26T19:36:26.845Z,1.57
2023-03-26T19:39:12.942Z,0.80
2023-03-26T19:41:58.344Z,1.50
2023-03-26T19:44:44.510Z,1.90
2023-03-26T19:51:06.935Z,2.67
2023-03-26T19:51:18.448Z,1.30
2023-03-26T19:53:54.575Z,1.10
2023-03-26T19:56:40.323Z,1.43
2023-03-26T19:59:25.649Z,1.40
2023-03-26T20:02:12.408Z,1.10
2023-03-26T20:04:57.711Z,1.70
2023-03-26T20:07:43.156Z,1.60
2023-03-26T20:10:28.650Z,1.57
2023-03-26T20:13:15.937Z,1.60
2023-03-26T20:16:07.374Z,2.07
2023-03-26T20:18:53.593Z,2.00
2023-03-26T20:21:39.101Z,1.73
2023-03-26T20:24:25.393Z,1.70
2023-03-26T20:27:11.618Z,1.53
2023-03-26T20:29:56.990Z,1.47
2023-03-26T20:32:44.414Z,3.80
2023-03-26T20:35:35.768Z,3.20
2023-03-26T20:38:26.474Z,1.70
2023-03-26T20:41:19.619Z,1.90
2023-03-26T20:44:14.723Z,1.10
2023-03-26T20:47:00.386Z,1.40
2023-03-26T20:49:45.737Z,1.10
2023-03-26T20:52:30.826Z,2.10
2023-03-26T20:55:18.901Z,0.80
2023-03-26T20:58:04.448Z,1.10
2023-03-26T21:00:50.303Z,1.07
2023-03-26T21:03:35.929Z,0.70
2023-03-26T21:06:21.458Z,0.80
2023-03-26T21:09:07.074Z,0.77
2023-03-26T21:12:02.380Z,1.17
2023-03-26T21:14:48.243Z,0.90
2023-03-26T21:17:33.646Z,1.13
2023-03-26T21:20:19.748Z,1.07
2023-03-26T21:23:23.580Z,0.90
2023-03-26T21:26:15.205Z,1.03
2023-03-26T21:29:00.381Z,0.70
2023-03-26T21:31:46.039Z,1.53
2023-03-26T21:34:31.794Z,1.10
2023-03-26T21:37:17.228Z,1.10
2023-03-26T21:40:03.067Z,1.27
2023-03-26T21:42:52.521Z,2.37
2023-03-26T21:45:39.383Z,2.23
2023-03-26T21:48:25.383Z,2.83
2023-03-26T21:51:11.629Z,4.20
2023-03-26T21:53:56.981Z,5.13
2023-03-26T21:56:58.350Z,5.33
2023-03-26T22:00:02.364Z,5.90
2023-03-26T22:03:18.175Z,5.10
2023-03-26T22:06:11.527Z,6.07
2023-03-26T22:08:57.134Z,7.30
2023-03-26T22:11:42.221Z,5.37
2023-03-26T22:14:27.853Z,6.77
2023-03-26T22:17:13.644Z,6.23
2023-03-26T22:19:58.948Z,7.27
2023-03-26T22:22:44.067Z,4.73
2023-03-26T22:25:29.388Z,7.47
2023-03-26T22:28:15.017Z,6.03
2023-03-26T22:31:06.023Z,7.63
2023-03-26T22:33:51.774Z,7.87
2023-03-26T22:36:39.784Z,7.27
2023-03-26T22:39:26.251Z,8.40
2023-03-26T22:42:11.497Z,10.73
2023-03-26T22:44:57.035Z,10.00
2023-03-26T22:47:42.454Z,8.87
2023-03-26T22:50:27.679Z,10.30
2023-03-26T22:53:12.938Z,10.40
2023-03-26T22:55:59.186Z,8.83
2023-03-26T22:58:45.418Z,12.83
2023-03-26T23:01:31.024Z,13.90
2023-03-26T23:04:31.423Z,12.57
2023-03-26T23:07:17.506Z,11.50
2023-03-26T23:10:02.973Z,11.77
2023-03-26T23:12:48.576Z,10.63
2023-03-26T23:15:33.754Z,12.33
2023-03-26T23:18:19.803Z,9.33
2023-03-26T23:21:05.936Z,11.00
2023-03-26T23:23:58.122Z,12.67
2023-03-26T23:26:50.427Z,10.53
2023-03-26T23:29:36.621Z,8.73
2023-03-26T23:32:23.383Z,14.60
2023-03-26T23:35:10.054Z,14.20
2023-03-26T23:37:55.088Z,11.10
2023-03-26T23:40:42.697Z,12.10
2023-03-26T23:43:28.984Z,11.43
2023-03-26T23:46:14.427Z,14.17
2023-03-26T23:49:00.188Z,9.93
2023-03-26T23:51:45.546Z,8.60
2023-03-26T23:54:31.591Z,8.80
2023-03-26T23:57:17.132Z,8.80
